Time;durP1;ratioP1;P1;durP2;ratioP2;P2;SDS_P1;SDS_P2;PMS_P1;PMS_P2;Temp;Humidity;BMP_temperature;BMP_pressure;BME280_temperature;BME280_humidity;BME280_pressure;Samples;Min_cycle;Max_cycle;Signal;HPM_P1;HPM_P2
2021/05/10 08:46:52;;;;;;;1.36;0.90;;;;;;;21.37;51.30;101126.78;469361;110;948337;-70
2021/05/10 08:47:59;;;;;;;3.03;0.92;;;;;;;21.21;28.54;101113.97;464567;112;922603;-69
2021/05/10 08:49:04;;;;;;;1.77;0.94;;;;;;;20.60;24.17;101110.89;467494;112;922502;-69
2021/05/10 08:50:09;;;;;;;1.94;1.46;;;;;;;19.79;24.25;101129.60;467460;112;923217;-69
2021/05/10 08:51:15;;;;;;;1.62;1.11;;;;;;;18.84;24.67;101132.09;467613;112;924006;-71
2021/05/10 08:53:40;;;;;;;1.85;0.99;;;;;;;17.38;25.79;101134.04;466659;110;945761;-68
2021/05/10 08:54:43;;;;;;;3.37;1.41;;;;;;;16.77;26.36;101130.03;456786;113;925508;-68
2021/05/10 08:55:50;;;;;;;1.39;1.05;;;;;;;16.18;26.74;101134.71;457080;114;924128;-67
2021/05/10 08:56:55;;;;;;;1.30;0.83;;;;;;;15.90;27.66;101128.20;456833;114;923046;-68
2021/05/10 08:57:59;;;;;;;1.37;0.82;;;;;;;15.68;28.79;101130.67;456489;114;924577;-70
2021/05/10 08:59:03;;;;;;;1.81;0.98;;;;;;;15.46;28.01;101138.58;456895;113;926573;-67
2021/05/10 09:00:12;;;;;;;0.92;0.88;;;;;;;15.34;28.66;101140.44;457556;114;922630;-69
2021/05/10 09:01:17;;;;;;;1.13;1.04;;;;;;;15.20;28.82;101137.05;457452;114;922449;-66
2021/05/10 09:02:34;;;;;;;1.91;1.23;;;;;;;15.12;29.16;101139.25;457103;114;922519;-70
2021/05/10 09:03:49;;;;;;;2.14;0.96;;;;;;;15.04;29.17;101123.95;457268;113;923193;-70
2021/05/10 09:04:49;;;;;;;4.06;1.01;;;;;;;15.00;29.72;101119.97;457091;114;922529;-66
2021/05/10 09:05:57;;;;;;;1.31;1.14;;;;;;;14.96;29.17;101124.25;457055;113;922685;-70
2021/05/10 09:07:17;;;;;;;1.54;0.93;;;;;;;14.93;29.75;101131.06;457247;114;930183;-67
2021/05/10 09:08:21;;;;;;;3.06;1.23;;;;;;;14.88;29.14;101141.05;457037;114;922903;-66
2021/05/10 09:09:24;;;;;;;4.29;0.98;;;;;;;14.85;29.45;101131.35;458707;113;922629;-70
2021/05/10 09:10:30;;;;;;;1.97;0.85;;;;;;;14.86;29.66;101148.67;457211;114;930157;-67
2021/05/10 09:11:34;;;;;;;2.33;1.22;;;;;;;14.85;29.37;101136.84;458130;114;923040;-68
2021/05/10 09:12:45;;;;;;;3.71;1.38;;;;;;;14.86;29.47;101121.22;457691;113;922574;-69
2021/05/10 09:13:56;;;;;;;1.20;1.01;;;;;;;14.87;30.01;101123.73;456800;114;922938;-68
2021/05/10 09:14:59;;;;;;;0.98;0.92;;;;;;;14.92;29.95;101120.30;457140;113;930229;-68
2021/05/10 09:16:03;;;;;;;1.78;0.93;;;;;;;14.94;29.16;101140.14;456910;113;923221;-69
2021/05/10 09:17:07;;;;;;;2.61;0.98;;;;;;;14.95;29.35;101117.08;456354;114;931899;-67
2021/05/10 09:18:11;;;;;;;1.07;0.96;;;;;;;14.98;29.68;101113.88;456603;114;923919;-68
2021/05/10 09:19:15;;;;;;;1.66;1.36;;;;;;;15.00;28.90;101175.73;457363;114;930261;-71
2021/05/10 09:20:23;;;;;;;1.91;0.89;;;;;;;15.00;29.02;101129.05;457081;113;923069;-69
2021/05/10 09:21:31;;;;;;;3.36;1.29;;;;;;;15.01;29.14;101118.90;457539;114;930456;-69
2021/05/10 09:22:52;;;;;;;1.29;0.83;;;;;;;15.04;29.07;101115.71;456423;114;924921;-69
2021/05/10 09:23:58;;;;;;;2.12;1.00;;;;;;;15.05;28.98;101113.81;457259;114;923050;-68
2021/05/10 09:25:05;;;;;;;1.41;0.94;;;;;;;15.07;28.71;101101.50;457388;113;922685;-68
2021/05/10 09:26:11;;;;;;;2.13;0.79;;;;;;;15.10;29.12;101097.47;456838;114;922839;-68
2021/05/10 09:27:25;;;;;;;1.47;0.90;;;;;;;15.12;28.56;101098.89;457879;114;922770;-67
2021/05/10 09:28:38;;;;;;;0.74;0.74;;;;;;;15.11;28.50;101101.87;456346;114;924125;-70
2021/05/10 09:29:41;;;;;;;1.51;1.13;;;;;;;15.10;28.58;101106.55;457739;114;922544;-68
2021/05/10 09:30:47;;;;;;;0.94;0.90;;;;;;;15.10;28.69;101097.47;457781;114;922514;-69
2021/05/10 09:31:51;;;;;;;5.94;1.09;;;;;;;15.11;29.23;101091.72;457420;114;922995;-69
2021/05/10 09:32:55;;;;;;;1.36;1.25;;;;;;;15.14;29.38;101096.77;457214;113;922459;-68
2021/05/10 09:33:58;;;;;;;1.13;0.85;;;;;;;15.15;28.20;101092.95;457689;114;930161;-67
2021/05/10 09:35:14;;;;;;;3.35;0.95;;;;;;;15.18;28.54;101086.98;457939;114;923516;-66
2021/05/10 09:36:38;;;;;;;1.92;1.11;;;;;;;15.22;28.45;101087.34;448981;116;922357;-67
2021/05/10 09:37:43;;;;;;;2.74;0.99;;;;;;;15.21;27.97;101086.53;457687;114;922225;-67
2021/05/10 09:38:48;;;;;;;0.94;0.84;;;;;;;15.22;28.49;101084.59;457635;113;922733;-70
2021/05/10 09:39:55;;;;;;;1.05;0.93;;;;;;;15.19;27.99;101079.58;457325;114;931207;-69
2021/05/10 09:41:01;;;;;;;1.33;0.95;;;;;;;15.19;28.50;101087.83;456550;114;930616;-67
2021/05/10 09:42:07;;;;;;;0.87;0.79;;;;;;;15.17;28.72;101084.45;458262;113;923676;-67
2021/05/10 09:43:16;;;;;;;1.48;1.01;;;;;;;15.19;29.15;101079.58;457300;114;922229;-68
2021/05/10 09:44:20;;;;;;;0.86;0.86;;;;;;;15.22;29.17;101079.94;458232;114;923393;-67
2021/05/10 09:45:45;;;;;;;4.83;1.20;;;;;;;15.20;28.65;101070.27;457662;114;923694;-67
2021/05/10 09:46:49;;;;;;;1.52;0.86;;;;;;;15.11;28.63;101074.40;456903;113;923797;-67
2021/05/10 09:48:06;;;;;;;3.45;1.13;;;;;;;15.07;28.97;101079.53;457458;114;923897;-69
2021/05/10 09:49:11;;;;;;;1.27;1.13;;;;;;;15.07;29.08;101073.20;456522;114;931693;-68
2021/05/10 09:50:14;;;;;;;1.69;1.20;;;;;;;15.09;29.75;101071.91;456557;114;922788;-66
2021/05/10 09:51:21;;;;;;;1.96;0.86;;;;;;;15.17;30.12;101076.22;457028;114;923074;-70
2021/05/10 09:52:26;;;;;;;1.64;0.96;;;;;;;15.27;30.29;101084.77;457818;114;923861;-69
2021/05/10 09:53:42;;;;;;;1.14;0.95;;;;;;;15.35;29.20;101096.25;457372;114;922711;-67
2021/05/10 09:55:00;;;;;;;1.01;0.88;;;;;;;15.40;28.51;101066.16;457620;114;922779;-68
2021/05/10 09:56:12;;;;;;;1.36;0.96;;;;;;;15.42;28.17;101076.92;457829;113;922408;-70
2021/05/10 09:57:16;;;;;;;1.47;0.85;;;;;;;15.39;28.09;101072.72;457161;114;922649;-69
2021/05/10 09:58:22;;;;;;;1.96;1.47;;;;;;;15.36;28.15;101092.44;457367;114;922584;-66
2021/05/10 09:59:27;;;;;;;1.83;0.94;;;;;;;15.33;28.63;101053.58;456755;114;930891;-69
2021/05/10 10:00:30;;;;;;;1.09;0.92;;;;;;;15.23;28.37;101095.36;456924;114;922593;-69
2021/05/10 10:01:41;;;;;;;3.08;0.88;;;;;;;15.23;28.37;101095.36;457008;114;929971;-67
2021/05/10 10:02:44;;;;;;;3.87;1.14;;;;;;;15.25;28.43;101070.41;456820;114;930194;-68
2021/05/10 10:03:52;;;;;;;1.20;0.76;;;;;;;15.26;28.75;101089.42;457335;113;930174;-68
2021/05/10 10:04:56;;;;;;;1.92;1.16;;;;;;;15.29;28.98;101090.84;456384;113;930201;-68
2021/05/10 10:06:03;;;;;;;3.18;0.96;;;;;;;15.31;27.87;101070.32;458070;114;922993;-68
2021/05/10 10:07:07;;;;;;;2.65;0.85;;;;;;;15.29;27.83;101075.20;458582;114;931677;-68
2021/05/10 10:08:13;;;;;;;2.04;0.76;;;;;;;15.23;28.04;101069.80;457216;114;923650;-71
2021/05/10 10:09:17;;;;;;;1.18;0.99;;;;;;;15.21;28.15;101074.70;457221;114;922597;-67
2021/05/10 10:10:20;;;;;;;1.76;0.94;;;;;;;15.21;28.19;101070.05;457570;114;922474;-68
2021/05/10 10:11:26;;;;;;;0.78;0.71;;;;;;;15.21;28.26;101069.21;457294;114;923240;-68
2021/05/10 10:12:32;;;;;;;1.11;0.83;;;;;;;15.19;28.43;101063.94;457219;114;922467;-69
2021/05/10 10:13:36;;;;;;;1.14;0.79;;;;;;;15.18;28.41;101062.27;456422;114;922700;-67
2021/05/10 10:14:40;;;;;;;1.94;1.08;;;;;;;15.16;28.56;101064.39;457200;114;922997;-70
2021/05/10 10:15:46;;;;;;;0.91;0.90;;;;;;;15.14;28.32;101069.30;456143;114;924074;-66
2021/05/10 10:16:50;;;;;;;1.39;0.98;;;;;;;15.12;28.14;101063.19;456895;114;933755;-66
2021/05/10 10:17:55;;;;;;;2.11;0.99;;;;;;;15.08;28.50;101080.38;456652;114;923215;-66
2021/05/10 10:19:02;;;;;;;8.89;1.17;;;;;;;15.07;28.29;101074.03;457053;114;923167;-67
2021/05/10 10:20:08;;;;;;;3.44;0.95;;;;;;;15.01;28.36;101052.99;456499;114;924020;-68
2021/05/10 10:21:13;;;;;;;2.62;0.86;;;;;;;15.05;28.39;101053.39;456850;114;924172;-69
2021/05/10 10:22:21;;;;;;;1.68;0.89;;;;;;;15.06;28.46;101055.88;456034;114;924089;-69
2021/05/10 10:23:26;;;;;;;1.19;0.97;;;;;;;15.07;28.42;101056.72;456441;114;924327;-67
2021/05/10 10:24:30;;;;;;;1.24;0.94;;;;;;;15.09;28.56;101063.67;456854;114;925888;-69
2021/05/10 10:25:37;;;;;;;4.09;1.13;;;;;;;15.11;27.98;101047.77;453456;114;925473;-70
2021/05/10 10:26:43;;;;;;;1.13;0.84;;;;;;;15.16;28.35;101044.35;454774;114;924484;-69
2021/05/10 10:27:50;;;;;;;0.69;0.59;;;;;;;15.19;28.26;101033.73;456800;114;924029;-67
2021/05/10 10:28:54;;;;;;;2.13;0.77;;;;;;;15.21;27.97;101039.83;456705;114;930171;-65
2021/05/10 10:30:00;;;;;;;1.70;0.80;;;;;;;15.24;27.80;101031.11;457588;114;922521;-69
2021/05/10 10:31:10;;;;;;;0.77;0.77;;;;;;;15.25;28.17;101034.70;456411;114;922425;-67
2021/05/10 10:32:19;;;;;;;2.78;0.91;;;;;;;15.23;28.10;101032.17;457773;114;922884;-67
2021/05/10 10:33:47;;;;;;;1.77;1.01;;;;;;;15.23;28.47;101031.34;456738;114;925408;-66
2021/05/10 10:34:52;;;;;;;3.01;1.24;;;;;;;15.24;28.67;101030.27;456419;114;925212;-68
2021/05/10 10:35:58;;;;;;;4.25;1.24;;;;;;;15.28;28.92;101020.48;457409;113;925483;-68
2021/05/10 10:37:04;;;;;;;3.51;1.19;;;;;;;15.31;28.56;101029.11;457036;114;922800;-65
2021/05/10 10:38:09;;;;;;;5.39;1.16;;;;;;;15.36;28.84;101025.65;456581;114;922509;-68
2021/05/10 10:39:23;;;;;;;1.72;0.78;;;;;;;15.41;29.04;101045.02;457414;114;927129;-67
2021/05/10 10:40:28;;;;;;;1.87;0.89;;;;;;;15.46;28.62;101034.15;455898;114;924077;-68
2021/05/10 10:41:32;;;;;;;1.84;1.17;;;;;;;15.51;28.71;101033.44;457255;114;925829;-68
2021/05/10 10:42:35;;;;;;;2.98;1.06;;;;;;;15.54;28.68;101027.52;455923;114;923337;-68
2021/05/10 10:43:39;;;;;;;4.08;1.20;;;;;;;15.52;28.41;101027.74;456273;114;923140;-69
2021/05/10 10:44:46;;;;;;;5.59;1.12;;;;;;;15.50;27.79;101034.50;457298;114;922918;-66
2021/05/10 10:46:12;;;;;;;1.24;1.16;;;;;;;15.44;28.12;101025.30;456547;114;930502;-66
2021/05/10 10:47:36;;;;;;;1.63;1.19;;;;;;;15.42;28.66;101033.80;453809;114;922439;-69
2021/05/10 10:48:40;;;;;;;5.37;1.97;;;;;;;15.43;28.58;101040.13;456704;114;922886;-67
2021/05/10 10:49:45;;;;;;;1.79;1.45;;;;;;;15.44;28.77;101022.55;457677;114;922691;-67
2021/05/10 10:51:00;;;;;;;2.07;0.87;;;;;;;15.43;28.26;101023.64;456599;114;930341;-66
2021/05/10 10:52:06;;;;;;;2.02;0.85;;;;;;;15.45;28.55;101030.56;457194;114;922887;-67
2021/05/10 10:53:10;;;;;;;3.16;0.91;;;;;;;15.47;28.34;101026.74;455963;114;922933;-68
2021/05/10 10:54:19;;;;;;;2.91;0.99;;;;;;;15.45;28.62;101036.05;454241;114;922466;-69
2021/05/10 10:55:33;;;;;;;1.28;0.85;;;;;;;15.46;28.75;101023.16;453525;115;922470;-72
2021/05/10 10:56:58;;;;;;;1.77;0.98;;;;;;;15.48;28.86;101047.66;453775;115;922575;-70
2021/05/10 10:58:21;;;;;;;0.95;0.79;;;;;;;15.42;28.52;101017.30;453111;114;922451;-69
2021/05/10 10:59:35;;;;;;;5.12;1.24;;;;;;;15.39;28.82;101036.16;453244;115;923994;-67
2021/05/10 11:00:59;;;;;;;2.39;0.86;;;;;;;15.35;29.22;101033.05;453565;115;922488;-67
2021/05/10 11:02:26;;;;;;;3.26;1.02;;;;;;;15.33;29.13;101037.09;453395;114;922443;-69
2021/05/10 11:03:31;;;;;;;1.72;0.88;;;;;;;15.29;29.05;101046.88;453245;115;922869;-70
2021/05/10 11:04:35;;;;;;;1.81;0.92;;;;;;;15.19;28.92;101024.64;453858;114;924064;-69
2021/05/10 11:05:43;;;;;;;2.39;0.88;;;;;;;15.14;29.29;101022.60;453321;115;922511;-69
2021/05/10 11:06:52;;;;;;;3.25;0.63;;;;;;;15.13;29.48;101022.83;454246;114;931666;-68
2021/05/10 11:08:04;;;;;;;2.08;0.82;;;;;;;15.08;29.70;101023.54;444059;118;924197;-70
2021/05/10 11:09:04;;;;;;;3.60;0.88;;;;;;;15.05;29.60;101014.94;440202;118;922483;-66
2021/05/10 11:10:08;;;;;;;4.98;1.34;;;;;;;15.00;29.37;101043.91;444607;117;924003;-69
2021/05/10 11:11:34;;;;;;;1.58;1.09;;;;;;;14.97;29.68;101032.56;444385;117;922866;-69
2021/05/10 11:12:54;;;;;;;1.47;0.82;;;;;;;14.95;29.96;101020.97;436944;121;924085;-66
2021/05/10 11:14:00;;;;;;;1.22;0.90;;;;;;;14.95;29.97;101009.98;442150;118;926124;-67
2021/05/10 11:15:04;;;;;;;1.09;0.83;;;;;;;14.94;29.67;101019.31;441762;118;923088;-68
2021/05/10 11:16:12;;;;;;;0.86;0.84;;;;;;;14.94;29.84;101025.62;441908;119;924016;-67
2021/05/10 11:17:20;;;;;;;1.04;0.78;;;;;;;14.94;29.49;101017.38;442084;119;923727;-67
2021/05/10 11:18:37;;;;;;;1.18;1.06;;;;;;;14.89;29.54;101024.64;437595;118;924231;-68
2021/05/10 11:19:42;;;;;;;1.62;1.14;;;;;;;14.88;29.63;101029.33;442329;118;922966;-69
2021/05/10 11:20:46;;;;;;;1.92;0.99;;;;;;;14.85;29.42;101016.05;441385;119;923859;-70
2021/05/10 11:21:50;;;;;;;1.96;1.14;;;;;;;14.83;29.67;101012.68;442167;117;931853;-69
2021/05/10 11:22:54;;;;;;;1.60;1.00;;;;;;;14.82;29.70;101005.54;441586;118;926496;-68
2021/05/10 11:24:09;;;;;;;1.20;0.83;;;;;;;14.82;29.61;101004.70;442024;117;922992;-70
2021/05/10 11:25:32;;;;;;;2.03;1.03;;;;;;;14.79;29.68;100999.66;435088;121;930180;-70
2021/05/10 11:26:40;;;;;;;2.23;1.21;;;;;;;14.78;29.77;101004.30;435718;119;924551;-68
2021/05/10 11:27:44;;;;;;;1.33;0.96;;;;;;;14.80;30.06;101004.08;441783;118;923990;-68
2021/05/10 11:28:48;;;;;;;2.64;1.01;;;;;;;14.81;30.21;101011.25;442088;118;923938;-71
2021/05/10 11:29:52;;;;;;;1.03;0.81;;;;;;;14.84;30.23;101008.03;441726;117;923801;-69
2021/05/10 11:30:58;;;;;;;1.03;0.81;;;;;;;14.85;30.09;101012.45;442608;117;924142;-69
2021/05/10 11:32:24;;;;;;;1.07;1.01;;;;;;;14.87;30.07;100997.44;442272;119;931629;-69
2021/05/10 11:33:55;;;;;;;1.22;1.02;;;;;;;14.89;29.95;101000.77;441813;117;924212;-69
2021/05/10 11:35:03;;;;;;;1.28;1.00;;;;;;;14.89;29.48;100976.06;442104;117;923055;-68
2021/05/10 11:36:07;;;;;;;2.46;0.87;;;;;;;14.92;29.62;100985.75;438340;119;922533;-70
2021/05/10 11:37:11;;;;;;;1.64;0.88;;;;;;;14.91;29.18;100973.09;435756;120;922904;-65
2021/05/10 11:38:17;;;;;;;3.09;1.21;;;;;;;14.90;29.00;100996.96;435466;119;923833;-70
2021/05/10 11:39:27;;;;;;;2.55;0.98;;;;;;;14.88;29.19;100982.65;442071;118;923968;-67
2021/05/10 11:40:31;;;;;;;2.49;0.98;;;;;;;14.92;29.60;100972.87;442442;119;922254;-72
2021/05/10 11:41:38;;;;;;;0.84;0.82;;;;;;;14.97;29.72;100966.66;442695;117;923234;-65
2021/05/10 11:42:42;;;;;;;3.26;1.15;;;;;;;15.03;29.34;100966.58;442809;118;930169;-66
2021/05/10 11:43:45;;;;;;;0.89;0.77;;;;;;;15.08;29.02;100963.11;442299;118;922550;-67
2021/05/10 11:44:52;;;;;;;1.55;0.89;;;;;;;15.11;29.33;100984.60;442995;117;922409;-67
2021/05/10 11:45:58;;;;;;;0.78;0.71;;;;;;;15.09;28.98;100951.06;440913;118;922675;-70
2021/05/10 11:47:04;;;;;;;0.99;0.84;;;;;;;15.10;29.22;100960.14;442282;119;923042;-69
2021/05/10 11:48:08;;;;;;;2.83;0.83;;;;;;;15.08;29.02;100974.09;442202;118;922695;-70
2021/05/10 11:49:28;;;;;;;2.68;0.88;;;;;;;15.09;29.00;100963.95;442360;119;922537;-68
2021/05/10 11:50:35;;;;;;;1.94;0.68;;;;;;;15.09;29.27;100970.29;426062;122;926040;-69
2021/05/10 11:51:40;;;;;;;2.85;0.83;;;;;;;15.09;29.32;100967.54;433575;118;922705;-67
2021/05/10 11:52:45;;;;;;;0.92;0.70;;;;;;;15.09;29.00;100962.05;436849;119;922574;-68
2021/05/10 11:53:58;;;;;;;1.99;0.69;;;;;;;15.11;29.10;100961.79;446512;116;930395;-70
2021/05/10 11:55:03;;;;;;;1.81;0.72;;;;;;;15.11;29.16;100965.38;451871;116;922989;-70
2021/05/10 11:56:07;;;;;;;1.71;0.85;;;;;;;15.12;29.36;100967.05;451764;116;922705;-69
2021/05/10 11:57:12;;;;;;;2.16;0.82;;;;;;;15.14;29.31;100972.33;450904;116;923228;-67
2021/05/10 11:58:19;;;;;;;1.06;0.85;;;;;;;15.15;29.53;100963.02;450956;116;926289;-68
2021/05/10 11:59:38;;;;;;;3.27;1.38;;;;;;;15.13;29.14;100971.48;446901;116;924011;-68
2021/05/10 12:00:51;;;;;;;2.80;1.11;;;;;;;15.12;29.43;100958.81;451023;116;922544;-68
2021/05/10 12:01:55;;;;;;;1.55;1.08;;;;;;;15.15;29.64;100960.27;450373;116;922910;-67
2021/05/10 12:02:58;;;;;;;1.13;0.94;;;;;;;15.15;29.40;100963.02;450588;116;922495;-67
2021/05/10 12:04:20;;;;;;;2.28;0.91;;;;;;;15.18;29.49;100955.13;450583;116;922995;-69
2021/05/10 12:05:24;;;;;;;2.25;0.94;;;;;;;15.21;29.45;100960.17;443927;116;930140;-70
2021/05/10 12:06:29;;;;;;;1.65;0.94;;;;;;;15.23;29.66;100949.77;449803;116;923090;-70
2021/05/10 12:07:34;;;;;;;1.17;1.02;;;;;;;15.26;29.32;100943.81;453065;116;922421;-69
2021/05/10 12:08:38;;;;;;;6.61;1.06;;;;;;;15.29;29.48;100958.97;453421;116;923161;-69
2021/05/10 12:10:02;;;;;;;1.15;0.82;;;;;;;15.29;29.21;100951.56;452527;116;922837;-68
2021/05/10 12:11:10;;;;;;;1.89;0.87;;;;;;;15.26;28.90;100946.56;451748;116;930243;-69
2021/05/10 12:12:17;;;;;;;2.01;0.91;;;;;;;15.20;29.22;100952.16;447189;116;924487;-69
2021/05/10 12:13:27;;;;;;;1.07;0.84;;;;;;;15.19;29.42;100934.00;452345;116;924056;-70
2021/05/10 12:14:31;;;;;;;1.72;0.96;;;;;;;15.17;29.58;100933.39;451465;115;923966;-66
2021/05/10 12:15:35;;;;;;;1.19;0.92;;;;;;;15.16;29.30;100934.48;451681;116;922570;-68
2021/05/10 12:16:42;;;;;;;1.60;0.95;;;;;;;15.16;29.65;100957.27;451745;116;922692;-68
2021/05/10 12:17:52;;;;;;;1.29;0.82;;;;;;;15.16;29.70;100935.30;448051;116;923207;-67
2021/05/10 12:18:57;;;;;;;1.16;1.06;;;;;;;15.16;29.74;100942.72;451499;116;924117;-68
2021/05/10 12:20:14;;;;;;;1.33;0.94;;;;;;;15.14;29.80;100937.45;451004;116;922839;-68
2021/05/10 12:21:17;;;;;;;0.79;0.68;;;;;;;15.13;29.66;100944.02;450555;116;924068;-69
2021/05/10 12:22:30;;;;;;;3.41;0.96;;;;;;;15.08;29.79;100940.30;450341;116;926585;-68
2021/05/10 12:23:34;;;;;;;1.21;0.68;;;;;;;15.06;29.78;100939.69;450751;116;922713;-67
2021/05/10 12:25:02;;;;;;;1.85;0.69;;;;;;;15.00;29.80;100938.72;450093;116;925089;-68
2021/05/10 12:26:11;;;;;;;2.88;1.11;;;;;;;14.97;29.72;100939.20;450373;116;924547;-67
2021/05/10 12:27:15;;;;;;;3.73;0.93;;;;;;;14.94;30.14;100947.92;451044;116;924380;-66
2021/05/10 12:28:23;;;;;;;2.75;0.69;;;;;;;14.93;30.34;100951.74;450171;116;924543;-68
2021/05/10 12:29:28;;;;;;;1.79;0.64;;;;;;;14.91;30.47;100946.47;451771;116;922477;-68
2021/05/10 12:30:47;;;;;;;2.99;1.02;;;;;;;14.91;30.56;100940.14;452864;116;926752;-67
2021/05/10 12:31:51;;;;;;;1.44;1.11;;;;;;;14.90;30.34;100938.46;452093;116;931434;-69
2021/05/10 12:32:58;;;;;;;1.91;1.09;;;;;;;14.90;30.64;100947.54;451870;116;922530;-68
2021/05/10 12:34:03;;;;;;;3.70;1.06;;;;;;;14.91;30.72;100940.98;451326;116;922929;-68
2021/05/10 12:35:10;;;;;;;3.75;1.08;;;;;;;14.92;30.36;100958.30;451728;116;923173;-68
2021/05/10 12:36:14;;;;;;;2.22;1.02;;;;;;;14.92;29.96;100941.83;451455;116;925352;-69
2021/05/10 12:37:18;;;;;;;3.14;0.92;;;;;;;14.89;30.09;100945.02;451324;115;923032;-70
2021/05/10 12:38:36;;;;;;;0.80;0.72;;;;;;;14.88;29.98;100932.39;451426;116;923033;-69
2021/05/10 12:39:40;;;;;;;0.90;0.72;;;;;;;14.86;30.31;100942.75;450298;116;922484;-68
2021/05/10 12:40:45;;;;;;;2.71;1.26;;;;;;;14.84;30.35;100937.48;450737;116;922817;-71
2021/05/10 12:41:49;;;;;;;1.29;0.95;;;;;;;14.85;30.33;100941.91;450783;116;930194;-71
2021/05/10 12:43:10;;;;;;;0.99;0.72;;;;;;;14.86;30.47;100942.75;450885;116;922451;-69
2021/05/10 12:44:14;;;;;;;1.96;0.80;;;;;;;14.84;29.95;100942.14;450626;116;923173;-68
2021/05/10 12:45:20;;;;;;;3.75;1.12;;;;;;;14.84;30.24;100939.39;449654;115;925430;-70
2021/05/10 12:46:25;;;;;;;3.66;1.30;;;;;;;14.82;30.59;100934.16;449743;116;923864;-70
2021/05/10 12:47:50;;;;;;;2.27;1.10;;;;;;;14.82;30.37;100942.40;450097;116;924079;-70
2021/05/10 12:48:56;;;;;;;4.09;1.31;;;;;;;14.81;29.99;100921.50;451599;116;924513;-68
2021/05/10 12:50:00;;;;;;;3.43;1.33;;;;;;;14.80;30.27;100930.80;451714;116;923990;-68
2021/05/10 12:51:07;;;;;;;1.88;0.95;;;;;;;14.76;30.03;100924.11;451266;116;926177;-69
2021/05/10 12:52:10;;;;;;;2.96;1.28;;;;;;;14.74;30.12;100912.52;452202;116;924141;-68
2021/05/10 12:53:14;;;;;;;2.82;1.26;;;;;;;14.74;30.35;100915.27;445636;117;925047;-71
2021/05/10 12:54:18;;;;;;;3.02;0.89;;;;;;;14.71;30.58;100915.75;445766;116;924526;-68
2021/05/10 12:55:23;;;;;;;4.73;1.35;;;;;;;14.71;30.37;100925.89;450781;116;924034;-69
2021/05/10 12:56:29;;;;;;;2.66;1.07;;;;;;;14.69;30.51;100912.39;452504;116;925210;-68
2021/05/10 12:57:33;;;;;;;2.02;0.93;;;;;;;14.69;30.50;100908.80;451622;116;931723;-68
2021/05/10 12:58:40;;;;;;;1.14;0.80;;;;;;;14.67;30.56;100909.03;451994;116;926784;-66
2021/05/10 12:59:48;;;;;;;1.54;1.01;;;;;;;14.69;30.72;100917.03;450956;116;930221;-67
2021/05/10 13:00:54;;;;;;;2.42;1.34;;;;;;;14.69;30.72;100887.69;451804;116;923970;-66
2021/05/10 13:02:02;;;;;;;2.59;0.92;;;;;;;14.70;30.62;100903.09;451685;116;923111;-66
2021/05/10 13:03:08;;;;;;;2.57;1.01;;;;;;;14.70;30.72;100894.02;441576;118;923142;-67
2021/05/10 13:04:15;;;;;;;1.33;1.21;;;;;;;14.71;30.84;100891.05;442314;116;923241;-65
2021/05/10 13:05:38;;;;;;;1.03;0.69;;;;;;;14.74;31.09;100895.21;451224;116;922774;-68
2021/05/10 13:06:47;;;;;;;3.28;0.77;;;;;;;14.74;30.84;100897.95;450913;116;923590;-67
2021/05/10 13:07:48;;;;;;;4.38;1.14;;;;;;;14.74;30.85;100893.30;450414;116;923081;-68
2021/05/10 13:08:53;;;;;;;0.95;0.70;;;;;;;14.74;31.17;100897.95;450508;116;923013;-68
2021/05/10 13:10:05;;;;;;;1.69;0.75;;;;;;;14.74;30.81;100892.47;450575;116;922598;-67
2021/05/10 13:11:16;;;;;;;3.50;0.82;;;;;;;14.74;30.90;100898.80;450383;116;922684;-71
2021/05/10 13:12:19;;;;;;;3.49;1.04;;;;;;;14.71;30.90;100912.16;449969;115;922529;-68
2021/05/10 13:13:26;;;;;;;3.87;1.17;;;;;;;14.67;31.06;100908.19;452550;116;922751;-68
2021/05/10 13:14:39;;;;;;;2.33;0.92;;;;;;;14.64;30.60;100904.02;449990;116;922908;-67
2021/05/10 13:15:45;;;;;;;3.97;1.13;;;;;;;14.59;30.70;100903.89;452272;116;922546;-67
2021/05/10 13:17:01;;;;;;;1.09;0.83;;;;;;;14.57;30.89;100898.63;451662;116;927305;-69
2021/05/10 13:21:14;;;;;;;8.68;1.48;;;;;;;14.53;31.14;100938.58;446540;116;924066;-68
2021/05/10 13:30:59;;;;;;;7.71;1.33;;;;;;;14.57;31.47;100882.16;450078;116;924175;-68
2021/05/10 13:31:47;;;;;;;2.52;1.49;;;;;;;14.67;31.79;100864.27;449979;116;924059;-71
2021/05/10 13:33:03;;;;;;;4.81;1.00;;;;;;;14.70;31.29;100845.45;448876;116;923973;-68
2021/05/10 13:35:20;;;;;;;3.50;1.16;;;;;;;14.76;31.65;100847.25;449935;116;922974;-67
2021/05/10 13:36:34;;;;;;;1.02;0.89;;;;;;;14.77;31.45;100845.34;452518;116;922683;-74
2021/05/10 13:37:37;;;;;;;2.28;1.03;;;;;;;14.78;31.31;100836.86;453568;116;922955;-68
2021/05/10 13:38:41;;;;;;;1.55;1.34;;;;;;;14.78;31.38;100847.00;453750;116;923510;-69
2021/05/10 13:39:44;;;;;;;2.48;1.04;;;;;;;14.78;31.42;100838.77;454097;116;928390;-69
2021/05/10 13:40:48;;;;;;;3.12;1.01;;;;;;;14.77;31.48;100837.95;455176;116;923276;-69
2021/05/10 13:43:15;;;;;;;3.12;1.04;;;;;;;14.74;31.46;100832.08;453802;116;922546;-70
2021/05/10 13:44:14;;;;;;;4.11;1.16;;;;;;;14.70;31.48;100833.63;453820;116;925428;-72
2021/05/10 13:45:21;;;;;;;3.84;1.35;;;;;;;14.63;31.34;100825.50;453683;116;922931;-72
2021/05/10 13:46:25;;;;;;;3.13;1.05;;;;;;;14.57;30.90;100835.51;454086;116;922682;-71
2021/05/10 13:47:28;;;;;;;3.04;0.87;;;;;;;14.55;30.99;100839.58;449300;115;930517;-73
2021/05/10 13:48:32;;;;;;;2.91;0.89;;;;;;;14.49;31.16;100833.12;450728;116;922483;-74
2021/05/10 13:49:36;;;;;;;5.43;0.96;;;;;;;14.48;31.25;100841.57;450238;116;930299;-78
2021/05/10 13:50:39;;;;;;;1.50;1.02;;;;;;;14.44;31.21;100822.02;451794;116;930030;-72
2021/05/10 13:51:44;;;;;;;1.99;0.81;;;;;;;14.43;31.31;100847.77;450086;116;929979;-72
2021/05/10 13:52:47;;;;;;;11.53;1.31;;;;;;;14.40;31.45;100853.70;451310;116;922346;-71
2021/05/10 13:53:51;;;;;;;3.31;1.22;;;;;;;14.38;31.21;100861.34;450705;116;922451;-73
2021/05/10 13:54:55;;;;;;;3.72;0.88;;;;;;;14.36;30.97;100857.12;449845;116;924111;-71
2021/05/10 13:55:59;;;;;;;5.33;1.15;;;;;;;14.30;31.15;100869.86;449908;116;924085;-72
2021/05/10 13:57:03;;;;;;;2.53;1.03;;;;;;;14.27;31.47;100874.98;450597;116;930381;-73
2021/05/10 13:58:06;;;;;;;2.93;1.04;;;;;;;14.24;31.32;100887.23;449947;115;922485;-72
2021/05/10 13:59:10;;;;;;;1.13;0.95;;;;;;;14.20;31.55;100853.13;451728;115;923182;-73
2021/05/10 14:00:19;;;;;;;2.10;0.91;;;;;;;14.20;31.74;100853.13;451256;116;922464;-72
2021/05/10 14:01:21;;;;;;;2.71;0.96;;;;;;;14.17;31.56;100856.31;451592;115;930280;-73
2021/05/10 14:02:24;;;;;;;3.90;1.02;;;;;;;14.17;31.76;100859.89;449767;115;924083;-73
2021/05/10 14:03:28;;;;;;;1.83;0.82;;;;;;;14.19;31.62;100854.19;450176;115;924695;-75
2021/05/10 14:04:32;;;;;;;2.61;1.12;;;;;;;14.18;31.53;100861.58;450469;115;931425;-73
2021/05/10 14:05:36;;;;;;;4.99;1.04;;;;;;;14.20;31.68;100862.19;450184;116;924166;-74
2021/05/10 14:06:40;;;;;;;4.92;1.10;;;;;;;14.22;31.87;100861.13;449464;115;931707;-72
2021/05/10 14:07:45;;;;;;;1.68;1.16;;;;;;;14.23;31.75;100858.13;450583;115;923880;-72
2021/05/10 14:08:49;;;;;;;3.50;0.91;;;;;;;14.20;31.34;100847.64;450017;115;930166;-72
2021/05/10 14:09:52;;;;;;;2.01;1.29;;;;;;;14.21;31.44;100857.55;450115;115;922958;-73
2021/05/10 14:10:56;;;;;;;2.74;0.79;;;;;;;14.20;31.29;100856.70;450153;115;930222;-71
2021/05/10 14:11:59;;;;;;;4.27;1.83;;;;;;;14.16;30.98;100840.95;451167;115;922548;-73
2021/05/10 14:13:03;;;;;;;3.46;1.25;;;;;;;14.12;30.70;100837.81;450321;116;922712;-71